createdAt,value
2023-02-04T00:01:58.387Z,21.73
2023-02-04T00:04:25.166Z,21.66
2023-02-04T00:06:51.900Z,21.78
2023-02-04T00:09:18.827Z,21.72
2023-02-04T00:11:45.768Z,21.87
2023-02-04T00:14:12.534Z,21.80
2023-02-04T00:16:39.280Z,21.90
2023-02-04T00:19:06.050Z,21.89
2023-02-04T00:21:32.863Z,21.96
2023-02-04T00:23:59.601Z,21.88
2023-02-04T00:26:26.370Z,22.07
2023-02-04T00:28:53.116Z,22.02
2023-02-04T00:31:19.986Z,21.55
2023-02-04T00:33:46.808Z,19.65
2023-02-04T00:36:13.542Z,19.01
2023-02-04T00:38:40.301Z,19.63
2023-02-04T00:41:07.085Z,19.20
2023-02-04T00:43:33.883Z,18.76
2023-02-04T00:46:00.759Z,18.67
2023-02-04T00:48:27.516Z,19.01
2023-02-04T00:50:54.338Z,19.50
2023-02-04T00:53:21.150Z,20.13
2023-02-04T00:55:47.947Z,20.39
2023-02-04T00:58:14.722Z,20.60
2023-02-04T01:00:41.510Z,20.74
2023-02-04T01:03:08.392Z,20.90
2023-02-04T01:05:35.173Z,20.99
2023-02-04T01:08:01.905Z,21.01
2023-02-04T01:10:28.978Z,21.05
2023-02-04T01:12:56.057Z,21.17
2023-02-04T01:15:22.986Z,21.31
2023-02-04T01:17:49.784Z,21.35
2023-02-04T01:20:16.528Z,21.41
2023-02-04T01:22:43.380Z,21.50
2023-02-04T01:25:10.211Z,21.46
2023-02-04T01:27:37.011Z,21.49
2023-02-04T01:30:03.743Z,21.57
2023-02-04T01:32:30.503Z,21.66
2023-02-04T01:34:57.358Z,21.64
2023-02-04T01:37:24.163Z,21.77
2023-02-04T01:39:50.912Z,21.80
2023-02-04T01:42:17.642Z,21.87
2023-02-04T01:44:44.390Z,21.88
2023-02-04T01:47:11.158Z,21.87
2023-02-04T01:49:37.902Z,21.95
2023-02-04T01:52:04.644Z,21.90
2023-02-04T01:54:31.395Z,20.84
2023-02-04T01:56:58.170Z,19.31
2023-02-04T01:59:24.899Z,19.02
2023-02-04T02:01:51.671Z,19.38
2023-02-04T02:04:18.402Z,19.24
2023-02-04T02:06:45.191Z,18.93
2023-02-04T02:09:12.002Z,18.92
2023-02-04T02:11:38.801Z,19.16
2023-02-04T02:14:05.554Z,18.88
2023-02-04T02:16:32.385Z,19.07
2023-02-04T02:18:59.904Z,18.80
2023-02-04T02:21:26.630Z,18.58
2023-02-04T02:23:53.399Z,18.58
2023-02-04T02:26:20.139Z,19.15
2023-02-04T02:28:47.716Z,19.66
2023-02-04T02:31:14.554Z,20.02
2023-02-04T02:33:41.413Z,20.09
2023-02-04T02:36:08.142Z,20.31
2023-02-04T02:38:34.895Z,20.37
2023-02-04T02:41:01.695Z,20.44
2023-02-04T02:43:28.497Z,20.67
2023-02-04T02:45:55.887Z,20.78
2023-02-04T02:48:22.704Z,20.89
2023-02-04T02:50:49.447Z,20.88
2023-02-04T02:53:16.431Z,21.01
2023-02-04T02:55:43.163Z,21.18
2023-02-04T02:58:09.895Z,21.17
2023-02-04T03:00:36.660Z,21.13
2023-02-04T03:03:03.414Z,21.34
2023-02-04T03:05:30.142Z,21.36
2023-02-04T03:07:56.901Z,21.39
2023-02-04T03:10:23.683Z,21.35
2023-02-04T03:12:50.433Z,21.45
2023-02-04T03:15:17.198Z,21.52
2023-02-04T03:17:43.998Z,21.66
2023-02-04T03:20:10.787Z,21.76
2023-02-04T03:22:37.528Z,21.76
2023-02-04T03:25:04.327Z,21.74
2023-02-04T03:27:31.098Z,21.77
2023-02-04T03:29:57.910Z,21.81
2023-02-04T03:32:24.682Z,21.82
2023-02-04T03:34:51.439Z,21.95
2023-02-04T03:37:18.222Z,21.85
2023-02-04T03:39:44.995Z,21.93
2023-02-04T03:42:11.741Z,21.94
2023-02-04T03:44:38.495Z,21.22
2023-02-04T03:47:05.217Z,19.38
2023-02-04T03:49:32.194Z,18.57
2023-02-04T03:51:59.075Z,19.42
2023-02-04T03:54:25.923Z,19.94
2023-02-04T03:56:52.694Z,20.50
2023-02-04T03:59:19.540Z,20.89
2023-02-04T04:01:46.327Z,21.14
2023-02-04T04:04:13.136Z,21.16
2023-02-04T04:06:39.966Z,21.22
2023-02-04T04:09:06.728Z,21.31
2023-02-04T04:11:33.468Z,21.38
2023-02-04T04:14:01.300Z,21.44
2023-02-04T04:16:28.383Z,21.57
2023-02-04T04:18:55.182Z,21.58
2023-02-04T04:21:21.986Z,21.67
2023-02-04T04:23:48.875Z,21.71
2023-02-04T04:26:17.218Z,21.78
2023-02-04T04:28:44.041Z,21.85
2023-02-04T04:31:10.868Z,21.92
2023-02-04T04:33:38.901Z,21.92
2023-02-04T04:36:05.647Z,21.90
2023-02-04T04:38:32.642Z,22.05
2023-02-04T04:40:59.373Z,22.00
2023-02-04T04:43:26.209Z,20.34
2023-02-04T04:45:52.942Z,19.14
2023-02-04T04:48:21.383Z,19.00
2023-02-04T04:50:48.234Z,19.54
2023-02-04T04:53:15.086Z,20.16
2023-02-04T04:55:41.824Z,20.54
2023-02-04T04:58:08.613Z,20.86
2023-02-04T05:00:35.447Z,21.02
2023-02-04T05:03:02.252Z,21.21
2023-02-04T05:05:29.039Z,21.42
2023-02-04T05:07:55.899Z,21.46
2023-02-04T05:10:22.679Z,21.43
2023-02-04T05:12:49.442Z,21.54
2023-02-04T05:15:16.199Z,21.54
2023-02-04T05:17:42.972Z,21.62
2023-02-04T05:20:09.739Z,21.73
2023-02-04T05:22:36.469Z,21.78
2023-02-04T05:25:03.234Z,21.78
2023-02-04T05:27:29.999Z,21.80
2023-02-04T05:29:56.834Z,21.89
2023-02-04T05:32:23.564Z,21.97
2023-02-04T05:34:50.310Z,21.91
2023-02-04T05:37:18.937Z,20.54
2023-02-04T05:39:45.746Z,19.23
2023-02-04T05:42:12.499Z,18.94
2023-02-04T05:44:39.222Z,19.68
2023-02-04T05:47:05.942Z,20.32
2023-02-04T05:49:32.696Z,20.79
2023-02-04T05:51:59.474Z,20.97
2023-02-04T05:54:26.280Z,21.16
2023-02-04T05:56:53.074Z,21.20
2023-02-04T05:59:19.808Z,21.30
2023-02-04T06:01:46.565Z,21.43
2023-02-04T06:04:15.272Z,21.51
2023-02-04T06:06:42.126Z,21.51
2023-02-04T06:09:08.845Z,21.64
2023-02-04T06:11:35.602Z,21.72
2023-02-04T06:14:02.395Z,21.80
2023-02-04T06:16:29.165Z,21.84
2023-02-04T06:18:55.925Z,21.86
2023-02-04T06:21:22.672Z,21.94
2023-02-04T06:23:49.401Z,22.01
2023-02-04T06:26:16.306Z,22.03
2023-02-04T06:28:43.055Z,21.47
2023-02-04T06:31:10.064Z,19.70
2023-02-04T06:33:37.124Z,18.51
2023-02-04T06:36:03.932Z,19.43
2023-02-04T06:38:30.707Z,20.01
2023-02-04T06:40:57.459Z,20.76
2023-02-04T06:43:25.420Z,20.79
2023-02-04T06:45:52.263Z,21.05
2023-02-04T06:48:19.148Z,21.20
2023-02-04T06:50:45.919Z,21.32
2023-02-04T06:53:12.719Z,21.31
2023-02-04T06:55:39.534Z,21.40
2023-02-04T06:58:06.426Z,21.48
2023-02-04T07:00:33.782Z,21.60
2023-02-04T07:03:00.844Z,21.57
2023-02-04T07:05:27.642Z,21.64
2023-02-04T07:07:54.389Z,21.75
2023-02-04T07:10:21.206Z,21.84
2023-02-04T07:12:48.029Z,21.89
2023-02-04T07:15:15.218Z,21.87
2023-02-04T07:17:42.089Z,22.04
2023-02-04T07:20:09.209Z,21.96
2023-02-04T07:22:35.992Z,22.00
2023-02-04T07:25:02.863Z,20.79
2023-02-04T07:27:29.754Z,19.38
2023-02-04T07:29:56.496Z,18.93
2023-02-04T07:32:23.270Z,19.53
2023-02-04T07:34:50.024Z,20.11
2023-02-04T07:37:16.821Z,20.59
2023-02-04T07:39:43.603Z,20.98
2023-02-04T07:42:10.343Z,21.07
2023-02-04T07:44:37.607Z,21.26
2023-02-04T07:47:04.373Z,21.27
2023-02-04T07:49:31.140Z,21.38
2023-02-04T07:51:58.010Z,21.49
2023-02-04T07:54:24.787Z,21.66
2023-02-04T07:56:51.531Z,21.58
2023-02-04T07:59:18.267Z,21.69
2023-02-04T08:01:45.104Z,21.81
2023-02-04T08:04:11.914Z,21.81
2023-02-04T08:06:38.647Z,21.92
2023-02-04T08:09:05.582Z,21.89
2023-02-04T08:11:32.334Z,22.03
2023-02-04T08:13:59.104Z,21.94
2023-02-04T08:16:25.965Z,21.28
2023-02-04T08:18:52.722Z,19.54
2023-02-04T08:21:19.629Z,18.88
2023-02-04T08:23:46.403Z,19.79
2023-02-04T08:26:13.182Z,20.26
2023-02-04T08:28:39.908Z,20.61
2023-02-04T08:31:07.109Z,20.79
2023-02-04T08:33:34.199Z,21.01
2023-02-04T08:36:00.975Z,21.18
2023-02-04T08:38:27.795Z,21.38
2023-02-04T08:40:54.678Z,21.34
2023-02-04T08:43:21.479Z,21.45
2023-02-04T08:45:48.237Z,21.59
2023-02-04T08:48:15.050Z,21.64
2023-02-04T08:50:41.813Z,21.74
2023-02-04T08:53:08.580Z,21.87
2023-02-04T08:55:35.344Z,21.79
2023-02-04T08:58:02.892Z,21.93
2023-02-04T09:00:30.353Z,21.89
2023-02-04T09:02:57.366Z,21.97
2023-02-04T09:05:24.192Z,21.95
2023-02-04T09:07:50.959Z,22.08
2023-02-04T09:10:17.772Z,21.11
2023-02-04T09:12:44.562Z,19.42
2023-02-04T09:15:11.410Z,18.68
2023-02-04T09:17:38.835Z,19.45
2023-02-04T09:20:05.612Z,20.17
2023-02-04T09:22:32.463Z,20.71
2023-02-04T09:24:59.190Z,20.85
2023-02-04T09:27:25.934Z,21.04
2023-02-04T09:29:52.696Z,21.20
2023-02-04T09:32:19.460Z,21.39
2023-02-04T09:34:46.206Z,21.43
2023-02-04T09:37:12.983Z,21.57
2023-02-04T09:39:39.712Z,21.62
2023-02-04T09:42:06.448Z,21.66
2023-02-04T09:44:33.209Z,21.87
2023-02-04T09:46:59.940Z,21.76
2023-02-04T09:49:26.764Z,21.85
2023-02-04T09:51:53.527Z,21.90
2023-02-04T09:54:20.323Z,21.95
2023-02-04T09:56:47.663Z,21.96
2023-02-04T09:59:14.454Z,20.66
2023-02-04T10:01:41.323Z,18.91
2023-02-04T10:04:08.045Z,18.75
2023-02-04T10:06:34.846Z,19.58
2023-02-04T10:09:01.572Z,20.24
2023-02-04T10:11:28.386Z,20.64
2023-02-04T10:13:55.186Z,20.92
2023-02-04T10:16:22.012Z,21.04
2023-02-04T10:18:48.816Z,21.17
2023-02-04T10:21:15.575Z,21.30
2023-02-04T10:23:42.350Z,21.38
2023-02-04T10:26:09.118Z,21.60
2023-02-04T10:28:35.918Z,21.55
2023-02-04T10:31:02.810Z,21.61
2023-02-04T10:33:29.669Z,21.70
2023-02-04T10:35:56.426Z,21.84
2023-02-04T10:38:23.166Z,21.82
2023-02-04T10:40:49.960Z,21.78
2023-02-04T10:43:16.767Z,21.97
2023-02-04T10:45:43.518Z,21.90
2023-02-04T10:48:10.247Z,22.01
2023-02-04T10:50:37.012Z,20.67
2023-02-04T10:53:22.307Z,19.09
2023-02-04T10:55:49.481Z,18.93
2023-02-04T10:58:16.303Z,19.85
2023-02-04T11:00:43.091Z,20.46
2023-02-04T11:03:09.884Z,20.83
2023-02-04T11:05:36.633Z,21.05
2023-02-04T11:08:03.370Z,21.14
2023-02-04T11:10:30.237Z,21.15
2023-02-04T11:12:57.054Z,21.27
2023-02-04T11:15:23.795Z,21.46
2023-02-04T11:17:50.526Z,21.48
2023-02-04T11:20:17.370Z,21.60
2023-02-04T11:22:44.209Z,21.76
2023-02-04T11:25:11.229Z,21.73
2023-02-04T11:27:38.098Z,21.83
2023-02-04T11:30:05.175Z,21.81
2023-02-04T11:32:31.959Z,21.83
2023-02-04T11:34:58.793Z,21.94
2023-02-04T11:37:25.539Z,22.02
2023-02-04T11:39:52.286Z,22.14
2023-02-04T11:42:19.043Z,22.03
2023-02-04T11:44:45.926Z,19.91
2023-02-04T11:47:12.669Z,18.28
2023-02-04T11:49:39.395Z,18.91
2023-02-04T11:52:08.571Z,20.00
2023-02-04T11:54:35.724Z,20.63
2023-02-04T11:57:02.499Z,20.95
2023-02-04T11:59:29.278Z,21.09
2023-02-04T12:01:56.021Z,21.20
2023-02-04T12:04:22.766Z,21.31
2023-02-04T12:06:49.497Z,21.46
2023-02-04T12:09:16.262Z,21.51
2023-02-04T12:11:42.991Z,21.59
2023-02-04T12:14:09.751Z,21.62
2023-02-04T12:16:36.534Z,21.70
2023-02-04T12:19:03.266Z,21.82
2023-02-04T12:21:30.026Z,21.77
2023-02-04T12:23:56.772Z,21.84
2023-02-04T12:26:23.501Z,21.93
2023-02-04T12:28:50.248Z,21.89
2023-02-04T12:31:17.208Z,21.97
2023-02-04T12:33:43.995Z,19.96
2023-02-04T12:36:10.760Z,18.62
2023-02-04T12:38:37.521Z,18.89
2023-02-04T12:41:04.275Z,19.77
2023-02-04T12:43:31.002Z,20.47
2023-02-04T12:45:57.747Z,20.83
2023-02-04T12:48:25.903Z,20.94
2023-02-04T12:50:52.718Z,21.23
2023-02-04T12:53:19.471Z,21.26
2023-02-04T12:55:46.216Z,21.25
2023-02-04T12:58:12.938Z,21.36
2023-02-04T13:00:39.788Z,21.53
2023-02-04T13:03:06.650Z,21.60
2023-02-04T13:05:33.983Z,21.58
2023-02-04T13:08:00.931Z,21.71
2023-02-04T13:10:27.680Z,21.76
2023-02-04T13:12:54.402Z,21.76
2023-02-04T13:15:21.166Z,21.86
2023-02-04T13:17:48.340Z,22.00
2023-02-04T13:20:15.166Z,20.88
2023-02-04T13:22:41.914Z,19.10
2023-02-04T13:25:10.098Z,17.76
2023-02-04T13:27:36.840Z,19.36
2023-02-04T13:30:03.636Z,20.18
2023-02-04T13:32:30.407Z,20.53
2023-02-04T13:34:57.169Z,20.71
2023-02-04T13:37:23.937Z,20.98
2023-02-04T13:39:50.735Z,21.09
2023-02-04T13:42:17.526Z,21.20
2023-02-04T13:44:45.591Z,21.26
2023-02-04T13:47:12.327Z,21.41
2023-02-04T13:49:39.070Z,21.48
2023-02-04T13:52:05.898Z,21.53
2023-02-04T13:54:32.684Z,21.65
2023-02-04T13:56:59.416Z,21.69
2023-02-04T13:59:26.256Z,21.68
2023-02-04T14:01:53.021Z,21.91
2023-02-04T14:04:19.762Z,21.88
2023-02-04T14:06:46.514Z,21.95
2023-02-04T14:09:13.349Z,21.97
2023-02-04T14:11:40.173Z,22.04
2023-02-04T14:14:06.924Z,21.88
2023-02-04T14:16:35.216Z,19.89
2023-02-04T14:19:03.040Z,18.37
2023-02-04T14:21:29.853Z,19.04
2023-02-04T14:23:56.598Z,19.84
2023-02-04T14:26:23.322Z,20.42
2023-02-04T14:28:50.096Z,20.92
2023-02-04T14:31:16.890Z,21.03
2023-02-04T14:33:43.725Z,21.12
2023-02-04T14:36:10.513Z,21.32
2023-02-04T14:38:39.040Z,21.38
2023-02-04T14:41:05.804Z,21.45
2023-02-04T14:43:37.018Z,21.61
2023-02-04T14:46:05.452Z,21.60
2023-02-04T14:48:32.477Z,21.68
2023-02-04T14:50:59.228Z,21.72
2023-02-04T14:53:26.117Z,21.89
2023-02-04T14:55:52.897Z,21.90
2023-02-04T14:58:19.922Z,21.91
2023-02-04T15:00:46.692Z,21.97
2023-02-04T15:03:14.415Z,21.93
2023-02-04T15:05:41.189Z,21.87
2023-02-04T15:08:08.085Z,19.92
2023-02-04T15:10:35.065Z,18.55
2023-02-04T15:13:02.167Z,19.28
2023-02-04T15:15:28.894Z,19.85
2023-02-04T15:17:55.620Z,20.53
2023-02-04T15:20:22.386Z,20.70
2023-02-04T15:22:52.359Z,21.02
2023-02-04T15:25:19.094Z,21.17
2023-02-04T15:27:45.930Z,21.33
2023-02-04T15:30:12.747Z,21.27
2023-02-04T15:32:40.218Z,21.51
2023-02-04T15:35:08.093Z,21.48
2023-02-04T15:37:34.827Z,21.56
2023-02-04T15:40:01.591Z,21.68
2023-02-04T15:42:29.285Z,21.68
2023-02-04T15:44:56.382Z,21.76
2023-02-04T15:47:23.125Z,21.87
2023-02-04T15:49:49.881Z,21.91
2023-02-04T15:52:24.807Z,21.91
2023-02-04T15:54:52.269Z,22.18
2023-02-04T15:57:19.025Z,21.07
2023-02-04T15:59:45.761Z,19.16
2023-02-04T16:02:12.593Z,18.39
2023-02-04T16:04:41.520Z,19.58
2023-02-04T16:07:08.445Z,20.19
2023-02-04T16:09:35.326Z,20.67
2023-02-04T16:12:02.093Z,20.94
2023-02-04T16:14:28.820Z,21.09
2023-02-04T16:16:55.648Z,21.25
2023-02-04T16:19:22.381Z,21.28
2023-02-04T16:21:49.115Z,21.40
2023-02-04T16:24:18.303Z,21.44
2023-02-04T16:26:45.035Z,21.49
2023-02-04T16:29:11.755Z,21.56
2023-02-04T16:31:38.613Z,21.66
2023-02-04T16:34:05.391Z,21.73
2023-02-04T16:36:32.135Z,21.78
2023-02-04T16:38:59.912Z,21.91
2023-02-04T16:41:26.657Z,21.83
2023-02-04T16:43:53.450Z,22.01
2023-02-04T16:46:20.254Z,22.08
2023-02-04T16:48:47.006Z,21.55
2023-02-04T16:51:13.766Z,19.51
2023-02-04T16:53:40.581Z,18.68
2023-02-04T16:56:07.319Z,19.29
2023-02-04T16:58:34.085Z,20.11
2023-02-04T17:01:00.867Z,20.64
2023-02-04T17:03:28.322Z,20.88
2023-02-04T17:05:55.101Z,21.16
2023-02-04T17:08:21.985Z,21.29
2023-02-04T17:11:07.610Z,21.30
2023-02-04T17:13:34.392Z,21.43
2023-02-04T17:16:01.636Z,21.54
2023-02-04T17:18:28.577Z,21.58
2023-02-04T17:20:55.356Z,21.64
2023-02-04T17:23:22.166Z,21.60
2023-02-04T17:25:49.027Z,21.74
2023-02-04T17:28:15.856Z,21.75
2023-02-04T17:30:42.653Z,21.90
2023-02-04T17:33:09.377Z,21.93
2023-02-04T17:35:36.416Z,21.98
2023-02-04T17:38:03.320Z,22.11
2023-02-04T17:40:30.298Z,22.06
2023-02-04T17:42:58.291Z,20.23
2023-02-04T17:45:25.038Z,18.92
2023-02-04T17:47:51.839Z,19.51
2023-02-04T17:50:18.650Z,19.97
2023-02-04T17:52:45.402Z,20.60
2023-02-04T17:55:12.132Z,20.89
2023-02-04T17:57:38.903Z,21.07
2023-02-04T18:00:05.643Z,21.19
2023-02-04T18:02:32.889Z,21.34
2023-02-04T18:05:00.122Z,21.62
2023-02-04T18:07:26.882Z,21.45
2023-02-04T18:09:53.700Z,21.51
2023-02-04T18:12:20.470Z,21.62
2023-02-04T18:14:47.281Z,21.64
2023-02-04T18:17:14.551Z,21.74
2023-02-04T18:19:41.370Z,21.75
2023-02-04T18:22:08.647Z,21.88
2023-02-04T18:24:36.189Z,21.90
2023-02-04T18:27:04.462Z,21.99
2023-02-04T18:29:31.237Z,22.05
2023-02-04T18:31:58.044Z,22.07
2023-02-04T18:34:26.532Z,20.57
2023-02-04T18:36:55.112Z,18.88
2023-02-04T18:39:21.873Z,18.68
2023-02-04T18:41:48.637Z,19.83
2023-02-04T18:44:15.418Z,20.51
2023-02-04T18:46:42.142Z,20.70
2023-02-04T18:49:09.020Z,21.01
2023-02-04T18:51:35.825Z,21.17
2023-02-04T18:54:02.602Z,21.35
2023-02-04T18:56:29.354Z,21.30
2023-02-04T18:58:56.135Z,21.49
2023-02-04T19:01:23.866Z,21.58
2023-02-04T19:03:50.692Z,21.59
2023-02-04T19:06:17.415Z,21.67
2023-02-04T19:08:44.259Z,21.67
2023-02-04T19:11:11.049Z,21.88
2023-02-04T19:13:37.972Z,21.78
2023-02-04T19:16:04.787Z,21.84
2023-02-04T19:18:32.223Z,21.93
2023-02-04T19:20:58.962Z,21.93
2023-02-04T19:23:25.743Z,22.03
2023-02-04T19:25:52.603Z,20.57
2023-02-04T19:28:19.393Z,19.03
2023-02-04T19:30:46.354Z,18.76
2023-02-04T19:33:13.132Z,19.90
2023-02-04T19:35:40.044Z,20.42
2023-02-04T19:38:06.802Z,20.78
2023-02-04T19:40:33.625Z,20.83
2023-02-04T19:43:00.369Z,21.04
2023-02-04T19:45:27.161Z,21.18
2023-02-04T19:47:53.914Z,21.31
2023-02-04T19:50:20.670Z,21.42
2023-02-04T19:52:47.442Z,21.45
2023-02-04T19:55:14.184Z,21.49
2023-02-04T19:57:40.917Z,21.59
2023-02-04T20:00:07.650Z,21.74
2023-02-04T20:02:34.701Z,21.65
2023-02-04T20:05:01.548Z,21.76
2023-02-04T20:07:28.311Z,21.78
2023-02-04T20:09:55.087Z,21.88
2023-02-04T20:12:21.833Z,22.05
2023-02-04T20:14:49.553Z,22.01
2023-02-04T20:17:16.350Z,22.05
2023-02-04T20:19:43.079Z,21.10
2023-02-04T20:22:09.830Z,19.70
2023-02-04T20:24:36.594Z,18.55
2023-02-04T20:27:03.390Z,19.60
2023-02-04T20:29:30.147Z,20.22
2023-02-04T20:31:56.922Z,20.63
2023-02-04T20:34:23.817Z,20.88
2023-02-04T20:36:51.898Z,21.01
2023-02-04T20:39:18.650Z,21.19
2023-02-04T20:41:45.454Z,21.30
2023-02-04T20:44:12.208Z,21.43
2023-02-04T20:46:38.960Z,21.51
2023-02-04T20:49:05.721Z,21.60
2023-02-04T20:51:32.451Z,21.54
2023-02-04T20:54:01.890Z,21.64
2023-02-04T20:56:28.704Z,21.72
2023-02-04T20:58:55.480Z,21.80
2023-02-04T21:01:22.330Z,21.96
2023-02-04T21:03:51.058Z,21.89
2023-02-04T21:06:17.798Z,21.92
2023-02-04T21:08:44.695Z,21.92
2023-02-04T21:11:11.435Z,22.07
2023-02-04T21:13:38.780Z,21.83
2023-02-04T21:16:06.147Z,19.92
2023-02-04T21:18:34.511Z,18.74
2023-02-04T21:21:01.295Z,19.14
2023-02-04T21:23:28.178Z,20.02
2023-02-04T21:25:54.967Z,20.64
2023-02-04T21:28:21.708Z,20.96
2023-02-04T21:30:48.559Z,21.04
2023-02-04T21:33:17.024Z,21.11
2023-02-04T21:35:43.989Z,21.27
2023-02-04T21:38:10.970Z,21.41
2023-02-04T21:40:38.057Z,21.44
2023-02-04T21:43:06.298Z,21.44
2023-02-04T21:45:33.511Z,21.61
2023-02-04T21:48:00.538Z,21.79
2023-02-04T21:50:27.456Z,21.73
2023-02-04T21:52:54.206Z,21.72
2023-02-04T21:55:23.953Z,21.84
2023-02-04T21:57:50.768Z,21.89
2023-02-04T22:00:17.714Z,21.97
2023-02-04T22:02:44.441Z,22.00
2023-02-04T22:05:11.214Z,22.04
2023-02-04T22:07:38.026Z,22.19
2023-02-04T22:10:05.397Z,22.03
2023-02-04T22:12:32.138Z,20.06
2023-02-04T22:14:58.898Z,18.56
2023-02-04T22:17:25.676Z,18.75
2023-02-04T22:19:52.416Z,20.10
2023-02-04T22:22:19.283Z,20.64
2023-02-04T22:24:46.101Z,20.85
2023-02-04T22:27:12.864Z,21.04
2023-02-04T22:29:39.650Z,21.17
2023-02-04T22:32:06.436Z,21.24
2023-02-04T22:34:33.231Z,21.52
2023-02-04T22:37:00.129Z,21.51
2023-02-04T22:39:26.896Z,21.50
2023-02-04T22:41:53.629Z,21.56
2023-02-04T22:44:20.399Z,21.64
2023-02-04T22:46:47.670Z,21.68
2023-02-04T22:49:14.491Z,21.71
2023-02-04T22:51:41.332Z,21.78
2023-02-04T22:54:08.111Z,21.87
2023-02-04T22:56:34.880Z,21.95
2023-02-04T22:59:01.668Z,21.99
2023-02-04T23:01:28.395Z,22.07
2023-02-04T23:03:55.179Z,22.04
2023-02-04T23:06:22.457Z,20.31
2023-02-04T23:08:49.464Z,18.38
2023-02-04T23:11:18.333Z,18.64
2023-02-04T23:13:45.526Z,19.87
2023-02-04T23:16:12.346Z,20.46
2023-02-04T23:18:39.263Z,20.72
2023-02-04T23:21:06.052Z,20.97
2023-02-04T23:23:32.839Z,21.13
2023-02-04T23:26:03.256Z,21.26
2023-02-04T23:28:30.012Z,21.25
2023-02-04T23:30:56.845Z,21.54
2023-02-04T23:33:23.636Z,21.44
2023-02-04T23:35:50.379Z,21.59
2023-02-04T23:38:17.111Z,21.56
2023-02-04T23:40:43.831Z,21.64
2023-02-04T23:43:10.945Z,21.83
2023-02-04T23:45:37.804Z,21.74
2023-02-04T23:48:05.032Z,21.92
2023-02-04T23:50:31.779Z,21.82
2023-02-04T23:52:58.545Z,21.96
2023-02-04T23:55:25.370Z,22.04
2023-02-04T23:57:52.112Z,22.08
